Data for 06/10/2018

Time Sea-Level Adjusted Pressure Absolute Pressure Temperature Relative Humidity Dew Point   
(mb) (inHg) (mb) (inHg) (C) (F) (%) (C) (F)
00:05 1005 29.68 834 24.63 18.6 65.4 40 4.8 40.6
00:10 1005 29.68 834 24.63 16.7 62.1 53 7.1 44.8
00:15 1005 29.68 834 24.63 15.8 60.5 56 7.1 44.8
00:20 1005 29.68 834 24.63 15.2 59.4 58 7.2 44.9
00:25 1005 29.68 834 24.63 14.8 58.7 60 7.3 45.1
00:30 1005 29.68 835 24.66 14.7 58.4 61 7.3 45.2
00:35 1006 29.71 835 24.66 14.6 58.2 62 7.5 45.4
00:40 1006 29.71 835 24.66 14.4 58 63 7.5 45.5
00:45 1006 29.71 836 24.69 14.3 57.7 63 7.5 45.5
00:50 1007 29.74 836 24.69 14.1 57.5 62 7.1 44.8
00:55 1007 29.74 836 24.69 14 57.3 62 6.8 44.3
01:00 1007 29.74 836 24.69 13.8 56.9 61 6.5 43.7
01:05 1007 29.74 837 24.72 13.7 56.6 59 6 42.7
01:10 1008 29.77 837 24.72 13.5 56.3 59 5.7 42.3
01:15 1008 29.77 837 24.72 13.3 56 59 5.4 41.8
01:20 1008 29.77 837 24.72 13.2 55.7 59 5.4 41.7
01:25 1008 29.77 837 24.72 13.1 55.6 57 4.8 40.7
01:30 1008 29.77 837 24.72 13.3 55.9 57 5 41
01:35 1008 29.77 837 24.72 13.3 55.9 57 4.9 40.9
01:40 1008 29.77 838 24.75 13.2 55.7 58 5.1 41.2
01:45 1008 29.77 838 24.75 13.1 55.5 58 5 41
01:50 1008 29.77 838 24.75 13 55.4 59 5.2 41.4
01:55 1008 29.77 838 24.75 12.8 55 60 5.3 41.6
02:00 1009 29.8 838 24.75 12.6 54.8 61 5.3 41.5
02:05 1009 29.8 838 24.75 12.6 54.6 61 5.2 41.4
02:10 1009 29.8 838 24.75 12.6 54.6 61 5.2 41.4
02:15 1009 29.8 838 24.75 12.6 54.6 62 5.4 41.8
02:20 1009 29.8 838 24.75 12.4 54.3 62 5.4 41.7
02:25 1009 29.8 838 24.75 12.4 54.2 61 5.2 41.4
02:30 1009 29.8 839 24.78 12.3 54.2 61 5.2 41.3
02:35 1010 29.83 839 24.78 12.3 54.1 61 5.1 41.2
02:40 1010 29.83 839 24.78 12.3 54.1 60 4.9 40.9
02:45 1010 29.83 839 24.78 12.3 54.2 60 4.9 40.9
02:50 1010 29.83 839 24.78 12.3 54.1 59 4.6 40.4
02:55 1011 29.85 840 24.81 12.2 53.9 60 4.8 40.6
03:00 1011 29.85 840 24.81 12.1 53.9 60 4.7 40.4
03:05 1011 29.85 840 24.81 12.1 53.8 60 4.7 40.5
03:10 1010 29.83 840 24.81 11.9 53.5 59 4.3 39.8
03:15 1010 29.83 840 24.81 11.9 53.3 57 3.7 38.7
03:20 1010 29.83 840 24.81 11.8 53.3 56 3.4 38.2
03:25 1010 29.83 840 24.81 11.8 53.2 56 3.3 38
03:30 1011 29.85 840 24.81 11.7 53 56 3.3 37.9
03:35 1011 29.85 840 24.81 11.6 52.8 57 3.3 37.9
03:40 1011 29.85 840 24.81 11.5 52.7 56 3.1 37.7
03:45 1011 29.85 840 24.81 11.5 52.8 56 3.2 37.8
03:50 1011 29.85 840 24.81 11.5 52.7 56 3.1 37.6
03:55 1011 29.85 841 24.83 11.6 52.8 56 3 37.5
04:00 1012 29.88 841 24.83 11.5 52.6 55 2.9 37.2
04:05 1012 29.88 841 24.83 11.4 52.5 57 3.2 37.8
04:10 1012 29.88 841 24.83 11.2 52.1 57 3.1 37.6
04:15 1012 29.88 841 24.83 10.9 51.5 59 3.1 37.6
04:20 1012 29.88 841 24.83 10.4 50.7 60 3 37.4
04:25 1012 29.88 841 24.83 9.9 49.8 61 2.7 36.9
04:30 1012 29.88 841 24.83 9.5 49.2 62 2.6 36.6
04:35 1012 29.88 841 24.83 9.4 48.9 62 2.6 36.7
04:40 1012 29.88 841 24.83 9.3 48.7 65 3 37.4
04:45 1012 29.88 841 24.83 9 48.3 68 3.4 38.2
04:50 1012 29.88 841 24.83 8.8 47.8 70 3.7 38.6
04:55 1012 29.88 841 24.83 8.5 47.3 72 3.8 38.9
05:00 1012 29.88 841 24.83 8.3 46.9 76 4.2 39.6
05:05 1012 29.88 841 24.83 8 46.4 77 4.3 39.7
05:10 1012 29.88 841 24.83 7.8 46.1 79 4.5 40.1
05:15 1012 29.88 841 24.83 7.8 46 80 4.5 40.1
05:20 1012 29.88 841 24.83 7.8 46 80 4.6 40.2
05:25 1012 29.88 841 24.83 7.8 46 81 4.7 40.4
05:30 1012 29.88 841 24.83 7.8 46 79 4.4 40
05:35 1012 29.88 841 24.83 7.6 45.7 81 4.6 40.2
05:40 1012 29.88 842 24.86 7.6 45.6 80 4.4 39.9
05:45 1013 29.91 842 24.86 7.4 45.4 83 4.7 40.5
05:50 1013 29.91 842 24.86 7.2 44.9 84 4.7 40.4
05:55 1013 29.91 842 24.86 6.9 44.5 85 4.7 40.4
06:00 1013 29.91 842 24.86 6.7 44.1 86 4.5 40.2
06:05 1012 29.88 841 24.83 6.7 44 87 4.6 40.3
06:10 1012 29.88 841 24.83 6.6 43.9 88 4.7 40.5
06:15 1011 29.85 841 24.83 6.6 43.9 87 4.7 40.4
06:20 1011 29.85 841 24.83 6.6 43.9 86 4.4 40
06:25 1011 29.85 840 24.81 6.7 44.1 85 4.5 40
06:30 1011 29.85 840 24.81 6.8 44.2 86 4.6 40.3
06:35 1011 29.85 840 24.81 6.8 44.3 84 4.4 39.9
06:40 1011 29.85 841 24.83 6.9 44.4 83 4.2 39.6
06:45 1011 29.85 841 24.83 7.1 44.7 82 4.1 39.4
06:50 1011 29.85 841 24.83 7.2 45 83 4.5 40
06:55 1012 29.88 841 24.83 7.4 45.3 82 4.5 40.2
07:00 1012 29.88 841 24.83 7.6 45.7 81 4.6 40.3
07:05 1012 29.88 841 24.83 7.9 46.2 81 4.8 40.7
07:10 1012 29.88 841 24.83 8.2 46.7 79 4.7 40.5
07:15 1012 29.88 841 24.83 8.2 46.7 80 5 41
07:20 1012 29.88 841 24.83 8.4 47.1 80 5.1 41.1
07:25 1012 29.88 841 24.83 8.5 47.4 78 5 41
07:30 1012 29.88 841 24.83 8.8 47.8 77 5.1 41.1
07:35 1012 29.88 841 24.83 8.7 47.7 76 4.7 40.4
07:40 1012 29.88 841 24.83 8.9 48 76 4.8 40.6
07:45 1012 29.88 841 24.83 8.6 47.5 77 4.8 40.6
07:50 1012 29.88 841 24.83 8.3 47 79 4.8 40.7
07:55 1012 29.88 841 24.83 8.2 46.7 79 4.7 40.4
08:00 1012 29.88 841 24.83 8.1 46.6 79 4.7 40.4
08:05 1012 29.88 841 24.83 8.1 46.5 79 4.7 40.4
08:10 1012 29.88 841 24.83 8 46.4 78 4.4 40
08:15 1012 29.88 842 24.86 7.9 46.3 80 4.6 40.3
08:20 1012 29.88 842 24.86 7.9 46.2 79 4.4 40
08:25 1012 29.88 842 24.86 7.9 46.1 79 4.5 40.1
08:30 1012 29.88 842 24.86 7.9 46.3 79 4.6 40.2
08:35 1012 29.88 842 24.86 8.1 46.5 78 4.4 40
08:40 1012 29.88 842 24.86 8.1 46.6 77 4.3 39.8
08:45 1013 29.91 842 24.86 8.1 46.5 78 4.5 40
08:50 1013 29.91 842 24.86 8 46.4 78 4.3 39.8
08:55 1013 29.91 842 24.86 8 46.4 78 4.5 40.1
09:00 1013 29.91 842 24.86 8 46.4 78 4.5 40.1
09:05 1013 29.91 842 24.86 8.1 46.6 78 4.6 40.2
09:10 1013 29.91 842 24.86 8.2 46.7 78 4.6 40.3
09:15 1013 29.91 842 24.86 8.2 46.8 77 4.5 40.1
09:20 1013 29.91 842 24.86 8.4 47 76 4.4 39.9
09:25 1013 29.91 842 24.86 8.4 47 77 4.6 40.3
09:30 1013 29.91 842 24.86 8.4 47 78 4.7 40.4
09:35 1013 29.91 842 24.86 8.2 46.8 79 4.8 40.6
09:40 1013 29.91 842 24.86 8.1 46.5 80 4.9 40.8
09:45 1013 29.91 842 24.86 7.9 46.1 81 4.9 40.8
09:50 1013 29.91 843 24.89 7.8 46 83 5 41.1
09:55 1014 29.94 843 24.89 7.6 45.6 84 5 41.1
10:00 1014 29.94 843 24.89 7.7 45.9 83 5.1 41.2
10:05 1014 29.94 843 24.89 8.1 46.5 82 5.2 41.3
10:10 1014 29.94 843 24.89 8.4 47.1 78 4.7 40.5
10:15 1014 29.94 843 24.89 8.6 47.4 76 4.6 40.3
10:20 1014 29.94 843 24.89 8.2 46.7 80 4.9 40.8
10:25 1014 29.94 843 24.89 7.8 46 77 4 39.3
10:30 1014 29.94 843 24.89 7.7 45.9 75 3.6 38.5
10:35 1014 29.94 843 24.89 7.8 46 74 3.5 38.2
10:40 1014 29.94 843 24.89 7.8 46.1 72 3.1 37.6
10:45 1014 29.94 843 24.89 7.8 46 64 1.4 34.4
10:50 1014 29.94 843 24.89 7.6 45.7 64 1.3 34.3
10:55 1014 29.94 843 24.89 7.7 45.9 65 1.6 34.9
11:00 1014 29.94 843 24.89 8 46.3 65 1.9 35.4
11:05 1014 29.94 843 24.89 8.1 46.6 64 1.7 35
11:10 1014 29.94 844 24.92 8.4 47.1 64 2 35.6
11:15 1014 29.94 844 24.92 8.9 48 59 1.3 34.4
11:20 1014 29.94 844 24.92 9.1 48.3 57 1 33.8
11:25 1014 29.94 844 24.92 9.2 48.5 55 0.7 33.2
11:30 1014 29.94 844 24.92 8.8 47.9 57 0.7 33.3
11:35 1014 29.94 844 24.92 8.9 47.9 56 0.6 33.1
11:40 1014 29.94 844 24.92 8.6 47.6 55 0.2 32.4
11:45 1015 29.97 844 24.92 8.6 47.4 57 0.6 33.2
11:50 1015 29.97 844 24.92 8.6 47.6 58 0.9 33.7
11:55 1015 29.97 844 24.92 8.8 47.8 58 0.9 33.7
12:00 1015 29.97 844 24.92 8.8 47.8 56 0.6 33
12:05 1015 29.97 844 24.92 8.8 47.9 59 1.2 34.2
12:10 1015 29.97 844 24.92 8.7 47.7 59 1.1 34
12:15 1015 29.97 844 24.92 8.7 47.7 58 1.1 33.9
12:20 1015 29.97 844 24.92 8.8 47.8 58 1.1 34
12:25 1015 29.97 844 24.92 8.6 47.5 58 0.9 33.7
12:30 1015 29.97 844 24.92 8.6 47.4 58 0.7 33.3
12:35 1015 29.97 844 24.92 8.4 47.2 59 1 33.8
12:40 1015 29.97 844 24.92 8.6 47.5 58 0.9 33.6
12:45 1015 29.97 844 24.92 8.9 48 56 0.6 33
12:50 1015 29.97 844 24.92 8.7 47.7 54 0 32
12:55 1015 29.97 844 24.92 8.8 47.8 53 -0.1 31.8
13:00 1015 29.97 844 24.92 8.8 47.8 53 -0.3 31.4
13:05 1015 29.97 844 24.92 8.7 47.7 55 0.2 32.3
13:10 1015 29.97 844 24.92 8.8 47.8 54 0.1 32.2
13:15 1015 29.97 844 24.92 8.7 47.7 57 0.8 33.4
13:20 1015 29.97 844 24.92 9.2 48.5 57 1 33.9
13:25 1015 29.97 844 24.92 9.7 49.4 54 0.8 33.5
13:30 1015 29.97 844 24.92 10 49.9 52 0.6 33.1
13:35 1015 29.97 844 24.92 9.9 49.8 53 0.8 33.4
13:40 1015 29.97 844 24.92 9.4 49 57 1.3 34.4
13:45 1015 29.97 844 24.92 8.7 47.6 61 1.6 34.9
13:50 1015 29.97 844 24.92 8.6 47.5 60 1.3 34.3
13:55 1015 29.97 844 24.92 8.6 47.5 60 1.3 34.3
14:00 1015 29.97 844 24.92 8.3 47 61 1.4 34.5
14:05 1015 29.97 844 24.92 8.4 47 62 1.5 34.8
14:10 1015 29.97 844 24.92 8.6 47.4 60 1.2 34.2
14:15 1015 29.97 844 24.92 8.7 47.6 59 1.3 34.3
14:20 1015 29.97 845 24.95 8.9 47.9 60 1.7 35
14:25 1015 29.97 845 24.95 8.9 48.1 60 1.7 35.1
14:30 1015 29.97 845 24.95 9 48.3 60 1.8 35.2
14:35 1015 29.97 845 24.95 9.3 48.7 58 1.4 34.6
14:40 1015 29.97 844 24.92 9.3 48.8 59 1.8 35.2
14:45 1015 29.97 844 24.92 9.3 48.7 57 1.1 34
14:50 1015 29.97 844 24.92 9.5 49.1 57 1.5 34.8
14:55 1015 29.97 844 24.92 10.2 50.3 53 1 33.9
15:00 1015 29.97 844 24.92 10.4 50.6 53 1.3 34.3
15:05 1015 29.97 844 24.92 10.4 50.8 50 0.6 33.1
15:10 1015 29.97 844 24.92 10.5 51 44 -1 30.1
15:15 1015 29.97 844 24.92 10.6 51 41 -2.2 28
15:20 1015 29.97 844 24.92 10.5 50.9 42 -1.8 28.8
15:25 1015 29.97 844 24.92 10.7 51.2 40 -2.5 27.6
15:30 1015 29.97 844 24.92 10.9 51.5 39 -2.6 27.4
15:35 1015 29.97 844 24.92 10.9 51.6 41 -1.9 28.6
15:40 1015 29.97 844 24.92 11 51.7 40 -2 28.5
15:45 1015 29.97 844 24.92 11 51.9 42 -1.2 29.8
15:50 1015 29.97 844 24.92 11 51.9 39 -2.3 27.9
15:55 1015 29.97 844 24.92 11.3 52.3 38 -2.4 27.7
16:00 1015 29.97 844 24.92 11.6 52.8 38 -2.3 27.9
16:05 1015 29.97 844 24.92 11.7 53.1 40 -1.5 29.4
16:10 1015 29.97 844 24.92 11.8 53.2 40 -1.2 29.8
16:15 1015 29.97 844 24.92 11.6 52.9 39 -2 28.5
16:20 1015 29.97 844 24.92 11.5 52.7 39 -1.8 28.7
16:25 1015 29.97 844 24.92 11.6 52.8 39 -1.9 28.6
16:30 1015 29.97 844 24.92 12 53.5 38 -2 28.4
16:35 1015 29.97 844 24.92 12.6 54.7 36 -2 28.4
16:40 1015 29.97 844 24.92 12.8 55 39 -0.8 30.5
16:45 1015 29.97 844 24.92 12.7 54.8 40 -0.6 31
16:50 1015 29.97 844 24.92 12.6 54.7 37 -1.7 29
16:55 1015 29.97 844 24.92 12.7 54.8 43 0.5 32.9
17:00 1015 29.97 844 24.92 12 53.6 44 0.3 32.5
17:05 1015 29.97 844 24.92 12 53.5 45 0.4 32.7
17:10 1015 29.97 844 24.92 12.1 53.7 43 -0.1 31.9
17:15 1015 29.97 844 24.92 12.2 54 43 -0 32
17:20 1015 29.97 844 24.92 12.3 54.1 39 -1.1 30.1
17:25 1015 29.97 844 24.92 12.1 53.8 44 0.4 32.7
17:30 1015 29.97 844 24.92 12 53.6 43 0 32
17:35 1015 29.97 844 24.92 11.9 53.5 43 -0.1 31.8
17:40 1015 29.97 844 24.92 12 53.5 42 -0.3 31.4
17:45 1015 29.97 844 24.92 11.9 53.4 44 0.1 32.1
17:50 1015 29.97 844 24.92 11.8 53.3 40 -1.4 29.5
17:55 1015 29.97 844 24.92 11.7 53 41 -1 30.2
18:00 1015 29.97 844 24.92 11.7 53 40 -1.5 29.3
18:05 1015 29.97 844 24.92 11.9 53.5 37 -2.4 27.6
18:10 1015 29.97 844 24.92 11.9 53.3 38 -2.1 28.2
18:15 1015 29.97 844 24.92 11.9 53.4 37 -2.3 27.9
18:20 1015 29.97 844 24.92 11.8 53.2 39 -1.7 29
18:25 1015 29.97 844 24.92 11.9 53.3 37 -2.3 27.9
18:30 1015 29.97 844 24.92 12.1 53.8 37 -1.9 28.5
18:35 1015 29.97 844 24.92 12.2 54 40 -0.9 30.4
18:40 1015 29.97 844 24.92 12.1 53.8 39 -1.4 29.4
18:45 1015 29.97 844 24.92 12.2 54 37 -2 28.5
18:50 1015 29.97 845 24.95 11.8 53.3 39 -1.7 28.9
18:55 1015 29.97 845 24.95 11.7 53 37 -2.4 27.6
19:00 1015 29.97 845 24.95 11.5 52.8 37 -2.7 27.1
19:05 1015 29.97 845 24.95 11.5 52.7 37 -2.8 26.9
19:10 1015 29.97 845 24.95 11.5 52.7 37 -2.7 27.1
19:15 1015 29.97 845 24.95 11.5 52.6 36 -3.1 26.5
19:20 1015 29.97 845 24.95 11.4 52.5 37 -2.6 27.4
19:25 1015 29.97 845 24.95 11.4 52.5 38 -2.5 27.4
19:30 1016 30 845 24.95 11.4 52.6 38 -2.4 27.7
19:35 1016 30 845 24.95 11.3 52.4 38 -2.4 27.7
19:40 1016 30 845 24.95 11.3 52.3 39 -2.3 27.9
19:45 1016 30 845 24.95 11.1 51.9 38 -2.6 27.3
19:50 1016 30 845 24.95 11 51.9 39 -2.3 27.9
19:55 1016 30 845 24.95 11.1 52 38 -2.7 27.2
20:00 1016 30 845 24.95 11.2 52.2 36 -3.2 26.2
20:05 1016 30 845 24.95 11.3 52.4 36 -3.2 26.2
20:10 1016 30 845 24.95 11.4 52.5 35 -3.5 25.7
20:15 1016 30 845 24.95 11.3 52.3 33 -4.4 24
20:20 1016 30 845 24.95 11.3 52.3 36 -3.4 25.9
20:25 1016 30 845 24.95 11.1 52.1 34 -4.2 24.4
20:30 1016 30 845 24.95 11 51.9 32 -5.1 22.8
20:35 1016 30 845 24.95 11 51.7 33 -4.7 23.5
20:40 1016 30 845 24.95 10.9 51.5 33 -4.6 23.7
20:45 1016 30 845 24.95 10.7 51.2 34 -4.6 23.7
20:50 1016 30 845 24.95 10.5 50.9 34 -4.7 23.6
20:55 1016 30 845 24.95 10.4 50.6 35 -4.5 23.9
21:00 1016 30 845 24.95 10.2 50.4 34 -5 23
21:05 1016 30 845 24.95 10.1 50.2 34 -5.1 22.9
21:10 1016 30 845 24.95 10 50.1 34 -5 23
21:15 1016 30 845 24.95 9.9 49.8 35 -4.8 23.4
21:20 1016 30 845 24.95 9.8 49.6 35 -5.1 22.9
21:25 1016 30 845 24.95 9.7 49.5 34 -5.3 22.5
21:30 1016 30 846 24.98 9.6 49.4 33 -5.7 21.7
21:35 1016 30 846 24.98 9.6 49.3 34 -5.4 22.4
21:40 1017 30.03 846 24.98 9.6 49.2 34 -5.4 22.2
21:45 1017 30.03 846 24.98 9.5 49.1 35 -5.2 22.7
21:50 1017 30.03 846 24.98 9.5 49.1 35 -5.3 22.5
21:55 1017 30.03 846 24.98 9.4 48.9 34 -5.6 21.9
22:00 1017 30.03 846 24.98 9.4 48.8 34 -5.7 21.8
22:05 1017 30.03 846 24.98 9.3 48.7 34 -5.9 21.4
22:10 1017 30.03 846 24.98 9.2 48.6 34 -6 21.2
22:15 1017 30.03 846 24.98 9.2 48.5 34 -6 21.3
22:20 1017 30.03 846 24.98 9.1 48.4 34 -5.8 21.5
22:25 1017 30.03 846 24.98 9 48.3 34 -6.1 21
22:30 1017 30.03 846 24.98 9 48.2 34 -6.1 21
22:35 1017 30.03 846 24.98 9 48.2 35 -5.6 22
22:40 1017 30.03 846 24.98 9 48.1 34 -5.9 21.3
22:45 1017 30.03 847 25.01 8.9 48.1 35 -5.8 21.6
22:50 1017 30.03 847 25.01 8.9 47.9 35 -5.9 21.3
22:55 1017 30.03 847 25.01 8.8 47.9 34 -6.3 20.7
23:00 1017 30.03 847 25.01 8.8 47.8 34 -6.2 20.9
23:05 1017 30.03 847 25.01 8.8 47.9 35 -5.7 21.7
23:10 1017 30.03 847 25.01 8.8 47.8 34 -6.4 20.5
23:15 1018 30.06 847 25.01 8.6 47.6 34 -6.3 20.6
23:20 1018 30.06 847 25.01 8.6 47.4 35 -5.9 21.4
23:25 1018 30.06 847 25.01 8.4 47.1 36 -6 21.3
23:30 1018 30.06 847 25.01 8.3 47 35 -6.3 20.7
23:35 1018 30.06 847 25.01 8.3 46.9 36 -5.9 21.3
23:40 1018 30.06 847 25.01 8.2 46.8 37 -5.7 21.8
23:45 1018 30.06 847 25.01 8.2 46.7 37 -5.6 21.9
23:50 1018 30.06 847 25.01 8.1 46.7 37 -5.8 21.6
23:55 1018 30.06 847 25.01 8.1 46.5 37 -5.6 21.9
24:00 1018 30.06 847 25.01 7.9 46.2 38 -5.6 21.9